createdAt,value
2017-12-10T00:00:43.217Z,0
2017-12-10T00:01:53.219Z,0
2017-12-10T00:03:02.944Z,0
2017-12-10T00:04:12.480Z,0
2017-12-10T00:05:21.944Z,0
2017-12-10T00:06:31.933Z,0
2017-12-10T00:07:41.929Z,0
2017-12-10T00:08:51.946Z,0
2017-12-10T00:10:01.139Z,0
2017-12-10T00:11:11.132Z,0
2017-12-10T00:12:21.126Z,0
2017-12-10T00:13:31.118Z,0
2017-12-10T00:14:40.755Z,0
2017-12-10T00:15:50.749Z,0
2017-12-10T00:17:00.831Z,0
2017-12-10T00:18:10.558Z,0
2017-12-10T00:19:20.299Z,0
2017-12-10T00:20:30.066Z,0
2017-12-10T00:21:39.550Z,0
2017-12-10T00:22:49.033Z,0
2017-12-10T00:23:58.747Z,0
2017-12-10T00:25:08.748Z,0
2017-12-10T00:26:18.471Z,0
2017-12-10T00:27:28.209Z,0
2017-12-10T00:28:38.196Z,0
2017-12-10T00:29:48.438Z,0
2017-12-10T00:30:58.190Z,0
2017-12-10T00:32:07.971Z,0
2017-12-10T00:33:17.698Z,0
2017-12-10T00:34:27.431Z,0
2017-12-10T00:35:37.416Z,0
2017-12-10T00:36:47.445Z,0
2017-12-10T00:37:56.907Z,0
2017-12-10T00:39:07.012Z,0
2017-12-10T00:40:16.739Z,0
2017-12-10T00:41:26.732Z,0
2017-12-10T00:42:36.723Z,0
2017-12-10T00:43:46.703Z,0
2017-12-10T00:44:56.564Z,0
2017-12-10T00:46:06.282Z,0
2017-12-10T00:47:16.017Z,0
2017-12-10T00:48:26.014Z,0
2017-12-10T00:49:35.473Z,0
2017-12-10T00:50:44.912Z,0
2017-12-10T00:51:54.635Z,0
2017-12-10T00:53:04.382Z,0
2017-12-10T00:54:14.125Z,0
2017-12-10T00:55:24.196Z,0
2017-12-10T00:56:34.182Z,0
2017-12-10T00:57:44.190Z,0
2017-12-10T00:58:54.185Z,0
2017-12-10T01:00:04.175Z,0
2017-12-10T01:01:13.904Z,0
2017-12-10T01:02:23.894Z,0
2017-12-10T01:03:33.888Z,0
2017-12-10T01:04:43.342Z,0
2017-12-10T01:05:53.065Z,0
2017-12-10T01:07:02.524Z,0
2017-12-10T01:08:12.638Z,0
2017-12-10T01:09:22.128Z,0
2017-12-10T01:10:32.133Z,0
2017-12-10T01:11:41.738Z,0
2017-12-10T01:12:51.458Z,0
2017-12-10T01:14:01.176Z,0
2017-12-10T01:15:11.164Z,0
2017-12-10T01:16:21.221Z,0
2017-12-10T01:17:30.941Z,0
2017-12-10T01:18:40.517Z,0
2017-12-10T01:19:50.931Z,0
2017-12-10T01:21:00.392Z,0
2017-12-10T01:22:09.859Z,0
2017-12-10T01:23:19.640Z,0
2017-12-10T01:24:29.671Z,0
2017-12-10T01:25:39.388Z,0
2017-12-10T01:26:49.382Z,0
2017-12-10T01:27:59.121Z,0
2017-12-10T01:29:09.115Z,0
2017-12-10T01:30:19.104Z,0
2017-12-10T01:31:28.828Z,0
2017-12-10T01:32:38.295Z,0
2017-12-10T01:33:48.021Z,0
2017-12-10T01:34:58.006Z,0
2017-12-10T01:36:08.003Z,0
2017-12-10T01:37:17.988Z,0
2017-12-10T01:38:27.752Z,0
2017-12-10T01:39:37.739Z,0
2017-12-10T01:40:47.460Z,0
2017-12-10T01:41:57.186Z,0
2017-12-10T01:43:06.934Z,0
2017-12-10T01:44:16.129Z,0
2017-12-10T01:45:25.848Z,0
2017-12-10T01:46:35.581Z,0
2017-12-10T01:47:45.582Z,0
2017-12-10T01:48:54.781Z,0
2017-12-10T01:50:04.769Z,0
2017-12-10T01:51:14.762Z,0
2017-12-10T01:52:24.492Z,0
2017-12-10T01:53:34.214Z,0
2017-12-10T01:54:43.975Z,0
2017-12-10T01:55:53.990Z,0
2017-12-10T01:57:03.716Z,0
2017-12-10T01:58:13.442Z,0
2017-12-10T01:59:23.446Z,0
2017-12-10T02:00:33.277Z,0
2017-12-10T02:01:43.263Z,0
2017-12-10T02:02:52.985Z,0
2017-12-10T02:04:02.440Z,0
2017-12-10T02:05:12.163Z,0
2017-12-10T02:06:22.159Z,0
2017-12-10T02:07:31.878Z,0
2017-12-10T02:08:41.882Z,0
2017-12-10T02:09:51.668Z,0
2017-12-10T02:11:01.385Z,0
2017-12-10T02:12:11.377Z,0
2017-12-10T02:13:20.570Z,0
2017-12-10T02:14:30.564Z,0
2017-12-10T02:15:40.289Z,0
2017-12-10T02:16:50.013Z,0
2017-12-10T02:18:00.026Z,0
2017-12-10T02:19:09.804Z,0
2017-12-10T02:20:19.520Z,0
2017-12-10T02:21:29.243Z,0
2017-12-10T02:22:38.972Z,0
2017-12-10T02:23:48.693Z,0
2017-12-10T02:24:58.680Z,0
2017-12-10T02:26:07.868Z,0
2017-12-10T02:27:17.597Z,0
2017-12-10T02:28:27.057Z,0
2017-12-10T02:29:37.022Z,0
2017-12-10T02:30:47.007Z,0
2017-12-10T02:31:56.999Z,0
2017-12-10T02:33:06.731Z,0
2017-12-10T02:34:16.487Z,0
2017-12-10T02:35:26.217Z,0
2017-12-10T02:36:35.674Z,0
2017-12-10T02:37:44.870Z,0
2017-12-10T02:38:54.865Z,0
2017-12-10T02:40:04.860Z,0
2017-12-10T02:41:14.581Z,0
2017-12-10T02:42:24.312Z,0
2017-12-10T02:43:34.354Z,0
2017-12-10T02:44:43.821Z,0
2017-12-10T02:45:53.278Z,0
2017-12-10T02:47:03.275Z,0
2017-12-10T02:48:13.002Z,0
2017-12-10T02:49:22.456Z,0
2017-12-10T02:50:32.190Z,0
2017-12-10T02:51:42.182Z,0
2017-12-10T02:52:52.341Z,0
2017-12-10T02:54:01.532Z,0
2017-12-10T02:55:11.531Z,0
2017-12-10T02:56:21.655Z,0
2017-12-10T02:57:31.688Z,0
2017-12-10T02:58:41.687Z,0
2017-12-10T02:59:51.153Z,0
2017-12-10T03:01:00.888Z,0
2017-12-10T03:02:10.349Z,0
2017-12-10T03:03:20.085Z,0
2017-12-10T03:04:29.804Z,0
2017-12-10T03:05:39.269Z,0
2017-12-10T03:06:48.977Z,0
2017-12-10T03:07:58.708Z,0
2017-12-10T03:09:08.706Z,0
2017-12-10T03:10:18.178Z,0
2017-12-10T03:11:28.171Z,0
2017-12-10T03:12:38.183Z,0
2017-12-10T03:13:48.178Z,0
2017-12-10T03:14:58.314Z,0
2017-12-10T03:16:08.306Z,0
2017-12-10T03:17:18.298Z,0
2017-12-10T03:18:28.287Z,0
2017-12-10T03:19:37.478Z,0
2017-12-10T03:20:47.494Z,0
2017-12-10T03:21:57.228Z,0
2017-12-10T03:23:06.988Z,0
2017-12-10T03:24:16.985Z,0
2017-12-10T03:25:26.456Z,0
2017-12-10T03:26:36.187Z,0
2017-12-10T03:27:46.291Z,0
2017-12-10T03:28:56.284Z,0
2017-12-10T03:30:06.035Z,0
2017-12-10T03:31:15.821Z,0
2017-12-10T03:32:25.855Z,0
2017-12-10T03:33:35.856Z,0
2017-12-10T03:34:45.323Z,0
2017-12-10T03:35:55.450Z,0
2017-12-10T03:37:05.452Z,0
2017-12-10T03:38:15.183Z,0
2017-12-10T03:39:24.914Z,0
2017-12-10T03:40:34.650Z,0
2017-12-10T03:41:44.651Z,0
2017-12-10T03:42:54.378Z,0
2017-12-10T03:44:04.105Z,0
2017-12-10T03:45:14.090Z,0
2017-12-10T03:46:24.088Z,0
2017-12-10T03:47:33.601Z,0
2017-12-10T03:48:43.589Z,0
2017-12-10T03:49:53.051Z,0
2017-12-10T03:51:02.513Z,0
2017-12-10T03:52:11.714Z,0
2017-12-10T03:53:21.446Z,0
2017-12-10T03:54:31.192Z,0
2017-12-10T03:55:41.202Z,0
2017-12-10T03:56:51.447Z,0
2017-12-10T03:58:01.206Z,0
2017-12-10T03:59:11.211Z,0
2017-12-10T04:00:20.947Z,0
2017-12-10T04:01:30.666Z,0
2017-12-10T04:02:40.671Z,0
2017-12-10T04:03:50.706Z,0
2017-12-10T04:05:00.953Z,0
2017-12-10T04:06:10.416Z,0
2017-12-10T04:07:20.479Z,0
2017-12-10T04:08:29.988Z,0
2017-12-10T04:09:39.984Z,0
2017-12-10T04:10:49.444Z,0
2017-12-10T04:11:59.448Z,0
2017-12-10T04:13:09.444Z,0
2017-12-10T04:14:19.160Z,0
2017-12-10T04:15:29.165Z,0
2017-12-10T04:16:38.644Z,0
2017-12-10T04:17:48.634Z,0
2017-12-10T04:18:58.354Z,0
2017-12-10T04:20:08.444Z,0
2017-12-10T04:21:18.173Z,0
2017-12-10T04:22:28.175Z,0
2017-12-10T04:23:37.913Z,0
2017-12-10T04:24:47.903Z,0
2017-12-10T04:25:58.032Z,0
2017-12-10T04:27:07.764Z,0
2017-12-10T04:28:17.212Z,0
2017-12-10T04:29:27.202Z,0
2017-12-10T04:30:36.933Z,0
2017-12-10T04:31:46.652Z,0
2017-12-10T04:32:56.639Z,0
2017-12-10T04:34:06.377Z,0
2017-12-10T04:35:16.378Z,0
2017-12-10T04:36:25.588Z,0
2017-12-10T04:37:35.648Z,0
2017-12-10T04:38:45.639Z,0
2017-12-10T04:39:54.840Z,0
2017-12-10T04:41:04.043Z,0
2017-12-10T04:42:14.052Z,0
2017-12-10T04:43:24.046Z,0
2017-12-10T04:44:34.057Z,0
2017-12-10T04:45:43.512Z,0
2017-12-10T04:46:53.485Z,0
2017-12-10T04:48:03.483Z,0
2017-12-10T04:49:13.229Z,0
2017-12-10T04:50:23.239Z,0
2017-12-10T04:51:33.235Z,0
2017-12-10T04:52:42.687Z,0
2017-12-10T04:53:52.410Z,0
2017-12-10T04:55:01.859Z,0
2017-12-10T04:56:11.325Z,0
2017-12-10T04:57:21.059Z,0
2017-12-10T04:58:30.528Z,0
2017-12-10T04:59:40.005Z,0
2017-12-10T05:00:49.992Z,0
2017-12-10T05:01:59.985Z,0
2017-12-10T05:03:09.991Z,0
2017-12-10T05:04:19.732Z,0
2017-12-10T05:05:29.734Z,0
2017-12-10T05:06:39.192Z,0
2017-12-10T05:07:49.447Z,0
2017-12-10T05:08:58.904Z,0
2017-12-10T05:10:08.914Z,0
2017-12-10T05:11:18.463Z,0
2017-12-10T05:12:28.473Z,0
2017-12-10T05:13:37.938Z,0
2017-12-10T05:14:47.936Z,0
2017-12-10T05:15:57.928Z,0
2017-12-10T05:17:07.919Z,0
2017-12-10T05:18:17.659Z,0
2017-12-10T05:19:27.370Z,0
2017-12-10T05:20:37.101Z,0
2017-12-10T05:21:47.101Z,0
2017-12-10T05:22:56.570Z,0
2017-12-10T05:24:06.309Z,0
2017-12-10T05:25:16.295Z,0
2017-12-10T05:26:26.031Z,0
2017-12-10T05:27:35.770Z,0
2017-12-10T05:28:45.974Z,0
2017-12-10T05:29:55.694Z,0
2017-12-10T05:31:05.433Z,0
2017-12-10T05:32:15.424Z,0
2017-12-10T05:33:25.156Z,0
2017-12-10T05:34:35.159Z,0
2017-12-10T05:35:45.200Z,0
2017-12-10T05:36:54.662Z,0
2017-12-10T05:38:04.377Z,0
2017-12-10T05:39:13.833Z,0
2017-12-10T05:40:23.821Z,0
2017-12-10T05:41:33.811Z,0
2017-12-10T05:42:43.812Z,0
2017-12-10T05:43:53.815Z,0
2017-12-10T05:45:03.268Z,0
2017-12-10T05:46:13.252Z,0
2017-12-10T05:47:23.276Z,0
2017-12-10T05:48:33.002Z,0
2017-12-10T05:49:42.778Z,0
2017-12-10T05:50:52.502Z,0
2017-12-10T05:52:02.240Z,0
2017-12-10T05:53:11.715Z,0
2017-12-10T05:54:21.703Z,0
2017-12-10T05:55:31.168Z,0
2017-12-10T05:56:41.160Z,0
2017-12-10T05:57:50.363Z,0
2017-12-10T05:58:59.833Z,0
2017-12-10T06:00:09.819Z,0
2017-12-10T06:01:19.022Z,0
2017-12-10T06:02:28.764Z,0
2017-12-10T06:03:38.498Z,0
2017-12-10T06:04:48.487Z,0
2017-12-10T06:05:58.464Z,0
2017-12-10T06:07:08.451Z,0
2017-12-10T06:08:18.443Z,0
2017-12-10T06:09:28.173Z,0
2017-12-10T06:10:37.905Z,0
2017-12-10T06:11:47.646Z,0
2017-12-10T06:12:57.097Z,0
2017-12-10T06:14:06.829Z,0
2017-12-10T06:15:16.817Z,0
2017-12-10T06:16:26.282Z,0
2017-12-10T06:17:35.740Z,0
2017-12-10T06:18:45.200Z,0
2017-12-10T06:19:55.183Z,0
2017-12-10T06:21:05.176Z,0
2017-12-10T06:22:15.159Z,0
2017-12-10T06:23:25.161Z,0
2017-12-10T06:24:34.628Z,0
2017-12-10T06:25:44.628Z,0
2017-12-10T06:26:54.641Z,0
2017-12-10T06:28:04.097Z,0
2017-12-10T06:29:14.097Z,0
2017-12-10T06:30:23.821Z,0
2017-12-10T06:31:33.568Z,0
2017-12-10T06:32:43.345Z,0
2017-12-10T06:33:53.093Z,0
2017-12-10T06:35:03.089Z,0
2017-12-10T06:36:13.086Z,0
2017-12-10T06:37:22.830Z,0
2017-12-10T06:38:32.557Z,0
2017-12-10T06:39:42.279Z,0
2017-12-10T06:40:52.004Z,0
2017-12-10T06:42:01.741Z,0
2017-12-10T06:43:11.222Z,0
2017-12-10T06:44:21.219Z,0
2017-12-10T06:45:31.209Z,0
2017-12-10T06:46:41.210Z,0
2017-12-10T06:47:51.209Z,0
2017-12-10T06:49:01.220Z,0
2017-12-10T06:50:11.212Z,0
2017-12-10T06:51:21.320Z,0
2017-12-10T06:52:31.313Z,0
2017-12-10T06:53:40.770Z,0
2017-12-10T06:54:51.010Z,0
2017-12-10T06:56:01.022Z,0
2017-12-10T06:57:10.496Z,0
2017-12-10T06:58:20.222Z,0
2017-12-10T06:59:30.217Z,0
2017-12-10T07:00:40.212Z,0
2017-12-10T07:01:50.229Z,0
2017-12-10T07:02:59.712Z,0
2017-12-10T07:04:09.705Z,0
2017-12-10T07:05:19.700Z,0
2017-12-10T07:06:29.435Z,0
2017-12-10T07:07:39.448Z,0
2017-12-10T07:08:49.180Z,0
2017-12-10T07:09:59.184Z,0
2017-12-10T07:11:08.916Z,0
2017-12-10T07:12:18.907Z,0
2017-12-10T07:13:28.910Z,0
2017-12-10T07:14:39.019Z,0
2017-12-10T07:15:49.035Z,0
2017-12-10T07:16:59.126Z,0
2017-12-10T07:18:08.866Z,0
2017-12-10T07:19:18.681Z,0
2017-12-10T07:20:28.523Z,0
2017-12-10T07:21:38.519Z,0
2017-12-10T07:22:48.514Z,0
2017-12-10T07:23:58.513Z,0
2017-12-10T07:25:08.678Z,0
2017-12-10T07:26:18.441Z,0
2017-12-10T07:27:28.162Z,0
2017-12-10T07:28:37.359Z,0
2017-12-10T07:29:47.127Z,0
2017-12-10T07:30:56.847Z,5
2017-12-10T07:32:06.311Z,5
2017-12-10T07:33:16.367Z,5
2017-12-10T07:34:25.821Z,5
2017-12-10T07:35:35.553Z,5
2017-12-10T07:36:45.275Z,5
2017-12-10T07:37:55.009Z,5
2017-12-10T07:39:04.743Z,5
2017-12-10T07:40:13.975Z,5
2017-12-10T07:41:23.712Z,5
2017-12-10T07:42:33.451Z,5
2017-12-10T07:43:43.169Z,5
2017-12-10T07:44:53.198Z,10
2017-12-10T07:46:03.183Z,10
2017-12-10T07:47:13.178Z,10
2017-12-10T07:48:23.163Z,10
2017-12-10T07:49:33.225Z,10
2017-12-10T07:50:42.946Z,10
2017-12-10T07:51:52.940Z,10
2017-12-10T07:53:03.043Z,15
2017-12-10T07:54:13.087Z,15
2017-12-10T07:55:23.081Z,15
2017-12-10T07:56:33.116Z,15
2017-12-10T07:57:42.592Z,15
2017-12-10T07:58:52.311Z,15
2017-12-10T08:00:02.053Z,15
2017-12-10T08:01:11.792Z,15
2017-12-10T08:02:20.997Z,15
2017-12-10T08:03:31.046Z,20
2017-12-10T08:04:40.768Z,20
2017-12-10T08:05:50.246Z,20
2017-12-10T08:06:59.969Z,20
2017-12-10T08:08:09.976Z,20
2017-12-10T08:09:20.003Z,20
2017-12-10T08:10:29.465Z,20
2017-12-10T08:11:39.408Z,20
2017-12-10T08:12:49.439Z,20
2017-12-10T08:13:59.449Z,20
2017-12-10T08:15:09.499Z,20
2017-12-10T08:16:19.549Z,20
2017-12-10T08:17:29.551Z,20
2017-12-10T08:18:39.287Z,25
2017-12-10T08:19:49.021Z,25
2017-12-10T08:20:58.799Z,30
2017-12-10T08:22:08.008Z,30
2017-12-10T08:23:18.026Z,30
2017-12-10T08:24:28.021Z,30
2017-12-10T08:25:37.813Z,30
2017-12-10T08:26:47.807Z,30
2017-12-10T08:27:57.562Z,30
2017-12-10T08:29:07.302Z,30
2017-12-10T08:30:17.312Z,30
2017-12-10T08:31:27.324Z,30
2017-12-10T08:32:37.163Z,30
2017-12-10T08:33:47.242Z,30
2017-12-10T08:34:56.759Z,30
2017-12-10T08:36:06.222Z,30
2017-12-10T08:37:15.956Z,30
2017-12-10T08:38:25.693Z,30
2017-12-10T08:39:35.697Z,30
2017-12-10T08:40:45.431Z,35
2017-12-10T08:41:55.159Z,35
2017-12-10T08:43:04.894Z,35
2017-12-10T08:44:14.908Z,30
2017-12-10T08:45:24.901Z,30
2017-12-10T08:46:34.643Z,35
2017-12-10T08:47:44.702Z,35
2017-12-10T08:48:54.447Z,35
2017-12-10T08:50:04.452Z,35
2017-12-10T08:51:14.429Z,35
2017-12-10T08:52:24.182Z,35
2017-12-10T08:53:34.175Z,35
2017-12-10T08:54:43.902Z,35
2017-12-10T08:55:53.911Z,35
2017-12-10T08:57:03.902Z,35
2017-12-10T08:58:13.642Z,35
2017-12-10T08:59:23.635Z,35
2017-12-10T09:00:33.685Z,35
2017-12-10T09:01:43.182Z,35
2017-12-10T09:02:53.242Z,40
2017-12-10T09:04:02.911Z,40
2017-12-10T09:05:12.908Z,40
2017-12-10T09:06:22.915Z,40
2017-12-10T09:07:32.902Z,40
2017-12-10T09:08:42.108Z,40
2017-12-10T09:09:51.840Z,40
2017-12-10T09:11:01.847Z,40
2017-12-10T09:12:11.584Z,40
2017-12-10T09:13:21.825Z,40
2017-12-10T09:14:31.852Z,40
2017-12-10T09:15:41.839Z,40
2017-12-10T09:16:51.561Z,40
2017-12-10T09:18:01.307Z,35
2017-12-10T09:19:11.003Z,35
2017-12-10T09:20:21.002Z,35
2017-12-10T09:21:30.729Z,35
2017-12-10T09:22:40.247Z,40
2017-12-10T09:23:50.245Z,40
2017-12-10T09:25:00.255Z,40
2017-12-10T09:26:10.144Z,40
2017-12-10T09:27:20.142Z,40
2017-12-10T09:28:29.590Z,40
2017-12-10T09:29:39.604Z,40
2017-12-10T09:30:49.592Z,40
2017-12-10T09:31:59.350Z,40
2017-12-10T09:33:09.094Z,40
2017-12-10T09:34:18.835Z,40
2017-12-10T09:35:28.572Z,40
2017-12-10T09:36:38.035Z,40
2017-12-10T09:37:47.820Z,40
2017-12-10T09:38:57.555Z,40
2017-12-10T09:40:07.778Z,40
2017-12-10T09:41:17.500Z,40
2017-12-10T09:42:27.512Z,40
2017-12-10T09:43:37.251Z,40
2017-12-10T09:44:46.993Z,40
2017-12-10T09:45:57.148Z,35
2017-12-10T09:47:06.883Z,35
2017-12-10T09:48:16.877Z,35
2017-12-10T09:49:26.986Z,35
2017-12-10T09:50:36.996Z,35
2017-12-10T09:51:46.847Z,35
2017-12-10T09:52:56.921Z,35
2017-12-10T09:54:06.700Z,40
2017-12-10T09:55:16.155Z,35
2017-12-10T09:56:26.145Z,35
2017-12-10T09:57:36.128Z,35
2017-12-10T09:58:46.093Z,35
2017-12-10T09:59:56.131Z,35
2017-12-10T10:01:06.286Z,30
2017-12-10T10:02:15.804Z,30
2017-12-10T10:03:25.814Z,30
2017-12-10T10:04:35.602Z,30
2017-12-10T10:05:45.591Z,30
2017-12-10T10:06:55.342Z,30
2017-12-10T10:08:05.340Z,30
2017-12-10T10:09:15.346Z,35
2017-12-10T10:10:25.354Z,35
2017-12-10T10:11:34.988Z,35
2017-12-10T10:12:44.598Z,35
2017-12-10T10:13:54.050Z,35
2017-12-10T10:15:04.069Z,35
2017-12-10T10:16:14.211Z,30
2017-12-10T10:17:24.062Z,30
2017-12-10T10:18:33.811Z,30
2017-12-10T10:19:43.662Z,30
2017-12-10T10:20:53.127Z,30
2017-12-10T10:22:02.855Z,30
2017-12-10T10:23:12.581Z,30
2017-12-10T10:24:22.621Z,30
2017-12-10T10:25:32.175Z,30
2017-12-10T10:26:41.916Z,30
2017-12-10T10:27:51.908Z,25
2017-12-10T10:29:01.944Z,25
2017-12-10T10:30:11.524Z,25
2017-12-10T10:31:21.271Z,25
2017-12-10T10:32:31.281Z,25
2017-12-10T10:33:41.282Z,25
2017-12-10T10:34:51.024Z,20
2017-12-10T10:36:01.079Z,20
2017-12-10T10:37:10.658Z,20
2017-12-10T10:38:20.650Z,20
2017-12-10T10:39:30.128Z,20
2017-12-10T10:40:39.657Z,20
2017-12-10T10:41:49.121Z,20
2017-12-10T10:42:58.322Z,20
2017-12-10T10:44:08.199Z,20
2017-12-10T10:45:17.944Z,20
2017-12-10T10:46:27.937Z,20
2017-12-10T10:47:37.948Z,20
2017-12-10T10:48:47.180Z,20
2017-12-10T10:49:56.919Z,20
2017-12-10T10:51:06.716Z,20
2017-12-10T10:52:16.711Z,20
2017-12-10T10:53:26.453Z,25
2017-12-10T10:54:35.906Z,25
2017-12-10T10:55:45.898Z,25
2017-12-10T10:56:55.626Z,25
2017-12-10T10:58:05.368Z,25
2017-12-10T10:59:15.119Z,25
2017-12-10T11:00:25.177Z,25
2017-12-10T11:01:34.939Z,25
2017-12-10T11:02:44.682Z,30
2017-12-10T11:03:54.478Z,30
2017-12-10T11:05:04.210Z,30
2017-12-10T11:06:14.253Z,30
2017-12-10T11:07:23.974Z,25
2017-12-10T11:08:34.212Z,25
2017-12-10T11:09:43.958Z,25
2017-12-10T11:10:53.698Z,25
2017-12-10T11:12:03.428Z,25
2017-12-10T11:13:12.611Z,25
2017-12-10T11:14:22.610Z,25
2017-12-10T11:15:32.355Z,20
2017-12-10T11:16:42.453Z,20
2017-12-10T11:17:52.174Z,20
2017-12-10T11:19:01.952Z,20
2017-12-10T11:20:11.753Z,20
2017-12-10T11:21:21.824Z,15
2017-12-10T11:22:31.318Z,15
2017-12-10T11:23:41.317Z,15
2017-12-10T11:24:50.873Z,15
2017-12-10T11:26:00.392Z,15
2017-12-10T11:27:09.796Z,15
2017-12-10T11:28:19.867Z,15
2017-12-10T11:29:29.347Z,15
2017-12-10T11:30:39.133Z,15
2017-12-10T11:31:48.642Z,15
2017-12-10T11:32:58.661Z,20
2017-12-10T11:34:08.174Z,15
2017-12-10T11:35:17.384Z,20
2017-12-10T11:36:27.397Z,20
2017-12-10T11:37:36.603Z,15
2017-12-10T11:38:46.323Z,15
2017-12-10T11:39:56.450Z,15
2017-12-10T11:41:06.206Z,15
2017-12-10T11:42:15.271Z,20
2017-12-10T11:43:25.279Z,20
2017-12-10T11:44:34.501Z,20
2017-12-10T11:45:44.570Z,20
2017-12-10T11:46:54.369Z,20
2017-12-10T11:48:04.426Z,20
2017-12-10T11:49:14.178Z,20
2017-12-10T11:50:24.639Z,20
2017-12-10T11:51:34.405Z,20
2017-12-10T11:52:44.412Z,20
2017-12-10T11:53:53.904Z,20
2017-12-10T11:55:03.123Z,15
2017-12-10T11:56:13.189Z,20
2017-12-10T11:57:23.020Z,20
2017-12-10T11:58:32.764Z,20
2017-12-10T11:59:42.751Z,20
2017-12-10T12:00:51.963Z,15
2017-12-10T12:02:01.951Z,15
2017-12-10T12:03:12.038Z,15
2017-12-10T12:04:21.792Z,15
2017-12-10T12:05:31.788Z,15
2017-12-10T12:06:41.536Z,15
2017-12-10T12:07:51.012Z,15
2017-12-10T12:09:00.810Z,15
2017-12-10T12:10:10.302Z,15
2017-12-10T12:11:19.835Z,20
2017-12-10T12:12:29.855Z,20
2017-12-10T12:13:39.584Z,20
2017-12-10T12:14:49.051Z,20
2017-12-10T12:15:59.053Z,25
2017-12-10T12:17:08.784Z,25
2017-12-10T12:18:18.855Z,20
2017-12-10T12:19:28.851Z,20
2017-12-10T12:20:38.921Z,20
2017-12-10T12:21:48.649Z,25
2017-12-10T12:22:58.371Z,25
2017-12-10T12:24:08.127Z,25
2017-12-10T12:25:17.601Z,25
2017-12-10T12:26:27.334Z,25
2017-12-10T12:27:37.319Z,25
2017-12-10T12:28:47.389Z,25
2017-12-10T12:29:56.862Z,25
2017-12-10T12:31:06.597Z,25
2017-12-10T12:32:16.315Z,25
2017-12-10T12:33:26.092Z,25
2017-12-10T12:34:35.840Z,25
2017-12-10T12:35:45.835Z,25
2017-12-10T12:36:55.333Z,25
2017-12-10T12:38:05.349Z,25
2017-12-10T12:39:15.134Z,30
2017-12-10T12:40:24.870Z,30
2017-12-10T12:41:34.663Z,35
2017-12-10T12:42:43.821Z,40
2017-12-10T12:43:53.831Z,45
2017-12-10T12:45:03.552Z,45
2017-12-10T12:46:13.018Z,45
2017-12-10T12:47:23.052Z,40
2017-12-10T12:48:32.793Z,30
2017-12-10T12:49:42.825Z,30
2017-12-10T12:50:52.300Z,30
2017-12-10T12:52:02.079Z,35
2017-12-10T12:53:11.283Z,30
2017-12-10T12:54:21.271Z,30
2017-12-10T12:55:31.170Z,25
2017-12-10T12:56:40.933Z,30
2017-12-10T12:57:50.946Z,30
2017-12-10T12:59:00.677Z,30
2017-12-10T13:00:10.407Z,30
2017-12-10T13:01:19.873Z,30
2017-12-10T13:02:29.897Z,25
2017-12-10T13:03:39.686Z,25
2017-12-10T13:04:49.189Z,20
2017-12-10T13:05:59.239Z,20
2017-12-10T13:07:08.718Z,15
2017-12-10T13:08:18.177Z,15
2017-12-10T13:09:27.906Z,15
2017-12-10T13:10:37.681Z,10
2017-12-10T13:11:47.407Z,10
2017-12-10T13:12:57.159Z,15
2017-12-10T13:14:07.323Z,15
2017-12-10T13:15:16.964Z,15
2017-12-10T13:16:27.144Z,15
2017-12-10T13:17:37.156Z,15
2017-12-10T13:18:47.071Z,15
2017-12-10T13:19:57.035Z,15
2017-12-10T13:21:06.619Z,20
2017-12-10T13:22:16.005Z,20
2017-12-10T13:23:25.994Z,20
2017-12-10T13:24:35.539Z,15
2017-12-10T13:25:45.446Z,15
2017-12-10T13:26:55.650Z,20
2017-12-10T13:28:05.601Z,20
2017-12-10T13:29:14.805Z,25
2017-12-10T13:30:24.735Z,25
2017-12-10T13:31:34.648Z,35
2017-12-10T13:32:44.324Z,40
2017-12-10T13:33:54.234Z,50
2017-12-10T13:35:03.758Z,50
2017-12-10T13:36:13.784Z,50
2017-12-10T13:37:24.427Z,55
2017-12-10T13:38:33.966Z,90
2017-12-10T13:39:43.472Z,130
2017-12-10T13:40:53.480Z,155
2017-12-10T13:42:03.535Z,145
2017-12-10T13:43:13.545Z,130
2017-12-10T13:44:23.307Z,115
2017-12-10T13:45:33.031Z,110
2017-12-10T13:46:43.148Z,100
2017-12-10T13:47:52.618Z,95
2017-12-10T13:49:02.072Z,100
2017-12-10T13:50:11.950Z,90
2017-12-10T13:51:21.587Z,80
2017-12-10T13:52:31.809Z,75
2017-12-10T13:53:41.857Z,70
2017-12-10T13:54:51.585Z,55
2017-12-10T13:56:01.063Z,45
2017-12-10T13:57:10.795Z,40
2017-12-10T13:58:24.631Z,35
2017-12-10T13:59:34.374Z,30
2017-12-10T14:00:44.101Z,25
2017-12-10T14:01:53.565Z,20
2017-12-10T14:03:03.569Z,20
2017-12-10T14:04:13.307Z,20
2017-12-10T14:05:23.302Z,20
2017-12-10T14:06:33.305Z,20
2017-12-10T14:07:43.366Z,30
2017-12-10T14:08:53.421Z,40
2017-12-10T14:10:03.195Z,40
2017-12-10T14:11:12.779Z,35
2017-12-10T14:12:23.032Z,35
2017-12-10T14:13:33.149Z,35
2017-12-10T14:14:42.944Z,35
2017-12-10T14:15:52.696Z,30
2017-12-10T14:17:02.947Z,30
2017-12-10T14:18:12.813Z,30
2017-12-10T14:19:22.962Z,25
2017-12-10T14:20:33.021Z,25
2017-12-10T14:21:44.407Z,20
2017-12-10T14:22:54.702Z,20
2017-12-10T14:24:04.740Z,20
2017-12-10T14:25:14.860Z,20
2017-12-10T14:26:24.609Z,15
2017-12-10T14:27:34.710Z,15
2017-12-10T14:28:44.528Z,15
2017-12-10T14:29:54.679Z,15
2017-12-10T14:31:04.416Z,15
2017-12-10T14:32:14.154Z,20
2017-12-10T14:33:24.174Z,20
2017-12-10T14:34:34.191Z,20
2017-12-10T14:35:43.834Z,20
2017-12-10T14:36:53.824Z,20
2017-12-10T14:38:03.290Z,15
2017-12-10T14:39:13.034Z,20
2017-12-10T14:40:22.776Z,25
2017-12-10T14:41:33.077Z,30
2017-12-10T14:42:42.925Z,35
2017-12-10T14:43:52.976Z,40
2017-12-10T14:45:02.960Z,35
2017-12-10T14:46:12.975Z,30
2017-12-10T14:47:22.974Z,30
2017-12-10T14:48:32.699Z,35
2017-12-10T14:49:42.421Z,30
2017-12-10T14:50:52.529Z,25
2017-12-10T14:52:02.671Z,25
2017-12-10T14:53:12.388Z,20
2017-12-10T14:54:22.440Z,20
2017-12-10T14:55:32.440Z,15
2017-12-10T14:56:42.489Z,15
2017-12-10T14:57:52.307Z,10
2017-12-10T14:59:02.047Z,10
2017-12-10T15:00:11.778Z,10
2017-12-10T15:01:21.988Z,10
2017-12-10T15:02:31.989Z,5
2017-12-10T15:03:41.774Z,5
2017-12-10T15:04:51.245Z,5
2017-12-10T15:06:00.993Z,5
2017-12-10T15:07:10.745Z,5
2017-12-10T15:08:20.485Z,5
2017-12-10T15:09:30.230Z,5
2017-12-10T15:10:39.981Z,5
2017-12-10T15:11:49.988Z,0
2017-12-10T15:12:59.464Z,0
2017-12-10T15:14:09.220Z,0
2017-12-10T15:15:18.951Z,0
2017-12-10T15:16:28.180Z,0
2017-12-10T15:17:38.180Z,0
2017-12-10T15:18:48.195Z,0
2017-12-10T15:19:58.023Z,0
2017-12-10T15:21:07.928Z,0
2017-12-10T15:22:17.842Z,0
2017-12-10T15:23:27.342Z,0
2017-12-10T15:24:37.168Z,0
2017-12-10T15:25:47.269Z,0
2017-12-10T15:26:57.144Z,0
2017-12-10T15:28:06.913Z,0
2017-12-10T15:29:16.428Z,0
2017-12-10T15:30:25.818Z,0
2017-12-10T15:31:35.872Z,0
2017-12-10T15:32:45.402Z,0
2017-12-10T15:33:54.978Z,0
2017-12-10T15:35:04.197Z,0
2017-12-10T15:36:14.261Z,0
2017-12-10T15:37:24.360Z,0
2017-12-10T15:38:34.219Z,0
2017-12-10T15:39:43.742Z,0
2017-12-10T15:40:53.263Z,0
2017-12-10T15:42:03.070Z,0
2017-12-10T15:43:12.900Z,0
2017-12-10T15:44:22.646Z,0
2017-12-10T15:45:32.440Z,0
2017-12-10T15:46:42.460Z,0
2017-12-10T15:47:52.325Z,0
2017-12-10T15:49:02.088Z,0
2017-12-10T15:50:12.119Z,0
2017-12-10T15:51:21.335Z,0
2017-12-10T15:52:31.376Z,0
2017-12-10T15:53:41.474Z,0
2017-12-10T15:54:51.564Z,0
2017-12-10T15:56:01.955Z,0
2017-12-10T15:57:11.613Z,0
2017-12-10T15:58:21.577Z,0
2017-12-10T15:59:31.140Z,0
2017-12-10T16:00:41.150Z,0
2017-12-10T16:01:51.318Z,0
2017-12-10T16:03:01.433Z,0
2017-12-10T16:04:11.559Z,0
2017-12-10T16:05:21.614Z,0
2017-12-10T16:06:31.400Z,0
2017-12-10T16:07:40.507Z,0
2017-12-10T16:08:50.641Z,0
2017-12-10T16:10:00.234Z,0
2017-12-10T16:11:10.338Z,0
2017-12-10T16:12:19.819Z,0
2017-12-10T16:13:30.105Z,0
2017-12-10T16:14:39.927Z,0
2017-12-10T16:15:49.971Z,0
2017-12-10T16:17:00.084Z,0
2017-12-10T16:18:10.185Z,0
2017-12-10T16:19:19.959Z,0
2017-12-10T16:20:29.772Z,0
2017-12-10T16:21:39.936Z,0
2017-12-10T16:22:49.427Z,0
2017-12-10T16:23:59.167Z,0
2017-12-10T16:25:09.239Z,0
2017-12-10T16:26:19.093Z,0
2017-12-10T16:27:28.640Z,0
2017-12-10T16:28:38.646Z,0
2017-12-10T16:29:47.962Z,0
2017-12-10T16:30:57.956Z,0
2017-12-10T16:32:07.754Z,0
2017-12-10T16:33:17.770Z,0
2017-12-10T16:34:27.780Z,0
2017-12-10T16:35:37.521Z,0
2017-12-10T16:36:47.255Z,0
2017-12-10T16:37:57.252Z,0
2017-12-10T16:39:07.604Z,0
2017-12-10T16:40:17.603Z,0
2017-12-10T16:41:27.325Z,0
2017-12-10T16:42:36.788Z,0
2017-12-10T16:43:46.790Z,0
2017-12-10T16:44:55.999Z,0
2017-12-10T16:46:05.219Z,0
2017-12-10T16:47:15.301Z,0
2017-12-10T16:48:24.829Z,0
2017-12-10T16:49:34.586Z,0
2017-12-10T16:50:44.356Z,0
2017-12-10T16:51:54.153Z,0
2017-12-10T16:53:04.153Z,0
2017-12-10T16:54:13.886Z,0
2017-12-10T16:55:23.919Z,0
2017-12-10T16:56:33.662Z,0